createdAt,value
2023-11-25T00:00:54.912Z,99581.89
2023-11-25T00:03:21.983Z,99581.02
2023-11-25T00:08:40.108Z,99582.60
2023-11-25T00:11:14.655Z,99579.85
2023-11-25T00:13:48.661Z,99585.27
2023-11-25T00:16:15.332Z,99585.40
2023-11-25T00:18:42.291Z,99586.40
2023-11-25T00:21:08.850Z,99592.64
2023-11-25T00:23:35.616Z,99594.83
2023-11-25T00:26:02.436Z,99597.37
2023-11-25T00:28:29.009Z,99599.21
2023-11-25T00:30:55.504Z,99604.63
2023-11-25T00:33:22.035Z,99606.33
2023-11-25T00:35:49.189Z,99609.20
2023-11-25T00:38:15.846Z,99614.98
2023-11-25T00:40:42.493Z,99620.05
2023-11-25T00:43:09.066Z,99626.48
2023-11-25T00:45:35.738Z,99629.72
2023-11-25T00:48:02.567Z,99631.77
2023-11-25T00:50:29.107Z,99638.70
2023-11-25T00:52:56.494Z,99642.10
2023-11-25T00:55:23.098Z,99647.53
2023-11-25T00:57:49.781Z,99644.12
2023-11-25T01:00:17.871Z,99644.29
2023-11-25T01:02:45.521Z,99645.98
2023-11-25T01:05:12.420Z,99652.27
2023-11-25T01:08:42.005Z,99656.55
2023-11-25T01:23:59.818Z,99676.66
2023-11-25T01:26:26.299Z,99688.16
2023-11-25T01:28:53.585Z,99684.55
2023-11-25T01:31:42.207Z,99689.66
2023-11-25T01:34:08.907Z,99696.05
2023-11-25T01:36:35.551Z,99698.56
2023-11-25T01:39:02.132Z,99706.52
2023-11-25T01:41:28.827Z,99711.08
2023-11-25T01:43:56.043Z,99711.73
2023-11-25T01:46:44.604Z,99710.03
2023-11-25T01:49:15.894Z,99714.60
2023-11-25T01:51:44.188Z,99715.30
2023-11-25T01:54:14.901Z,99720.91
2023-11-25T01:56:43.035Z,99727.88
2023-11-25T01:59:12.388Z,99728.05
2023-11-25T02:01:39.479Z,99735.02
2023-11-25T02:04:06.221Z,99736.89
2023-11-25T02:08:44.270Z,99742.70
2023-11-25T02:11:10.981Z,99749.44
2023-11-25T02:13:38.367Z,99749.91
2023-11-25T02:16:05.504Z,99756.58
2023-11-25T02:18:32.082Z,99764.54
2023-11-25T02:20:58.728Z,99767.61
2023-11-25T02:23:25.398Z,99766.94
2023-11-25T02:25:54.030Z,99765.23
2023-11-25T02:28:21.701Z,99766.25
2023-11-25T02:30:49.272Z,99765.23
2023-11-25T02:33:16.656Z,99770.63
2023-11-25T02:35:43.915Z,99770.29
2023-11-25T02:38:15.094Z,99776.55
2023-11-25T02:40:44.742Z,99775.00
2023-11-25T02:43:14.443Z,99778.56
2023-11-25T02:45:41.890Z,99779.89
2023-11-25T02:48:10.403Z,99788.20
2023-11-25T02:50:36.945Z,99796.83
2023-11-25T02:53:05.798Z,99798.35
2023-11-25T02:55:32.449Z,99799.70
2023-11-25T02:57:58.988Z,99803.09
2023-11-25T03:00:34.096Z,99808.50
2023-11-25T03:03:08.890Z,99811.35
2023-11-25T03:08:36.768Z,99804.60
2023-11-25T03:11:13.550Z,99794.20
2023-11-25T03:13:43.926Z,99798.27
2023-11-25T03:16:12.299Z,99793.98
2023-11-25T03:18:39.219Z,99795.15
2023-11-25T03:21:11.159Z,99799.55
2023-11-25T03:23:37.977Z,99808.67
2023-11-25T03:26:06.350Z,99809.17
2023-11-25T03:34:20.056Z,99804.71
2023-11-25T03:36:46.582Z,99815.89
2023-11-25T03:39:14.743Z,99821.34
2023-11-25T03:41:41.315Z,99811.38
2023-11-25T03:44:08.095Z,99806.86
2023-11-25T03:46:36.604Z,99796.77
2023-11-25T03:49:03.588Z,99796.50
2023-11-25T03:51:30.514Z,99808.11
2023-11-25T03:53:57.150Z,99804.93
2023-11-25T03:56:23.656Z,99803.45
2023-11-25T03:58:50.211Z,99809.44
2023-11-25T04:01:18.009Z,99806.75
2023-11-25T04:03:44.622Z,99809.97
2023-11-25T04:08:42.160Z,99813.52
2023-11-25T04:11:09.477Z,99827.36
2023-11-25T04:13:36.789Z,99826.03
2023-11-25T04:16:04.597Z,99824.47
2023-11-25T04:18:31.904Z,99824.46
2023-11-25T04:20:58.513Z,99831.08
2023-11-25T04:23:26.061Z,99835.51
2023-11-25T04:25:52.628Z,99841.48
2023-11-25T04:28:20.249Z,99851.47
2023-11-25T04:30:46.856Z,99849.56
2023-11-25T04:33:13.454Z,99852.29
2023-11-25T04:35:40.707Z,99846.35
2023-11-25T04:38:08.615Z,99848.21
2023-11-25T04:40:35.229Z,99850.06
2023-11-25T04:43:01.853Z,99853.92
2023-11-25T04:45:28.539Z,99853.08
2023-11-25T04:47:55.110Z,99850.34
2023-11-25T04:50:21.883Z,99857.35
2023-11-25T04:52:48.895Z,99860.09
2023-11-25T04:55:15.951Z,99859.63
2023-11-25T04:57:43.507Z,99861.36
2023-11-25T05:00:12.254Z,99853.43
2023-11-25T05:02:39.846Z,99857.35
2023-11-25T05:05:07.798Z,99859.27
2023-11-25T05:08:43.176Z,99847.14
2023-11-25T05:11:09.849Z,99844.55
2023-11-25T05:13:38.289Z,99845.06
2023-11-25T05:16:06.451Z,99837.06
2023-11-25T05:18:33.007Z,99843.66
2023-11-25T05:20:59.612Z,99841.23
2023-11-25T05:34:41.812Z,99831.25
2023-11-25T05:37:11.202Z,99836.66
2023-11-25T05:39:38.207Z,99828.53
2023-11-25T05:42:06.763Z,99830.04
2023-11-25T05:44:33.453Z,99829.67
2023-11-25T05:47:00.214Z,99831.16
2023-11-25T06:00:33.238Z,99836.40
2023-11-25T06:02:59.801Z,99845.00
2023-11-25T06:05:28.833Z,99837.86
2023-11-25T06:07:55.488Z,99837.00
2023-11-25T06:10:22.188Z,99837.30
2023-11-25T06:12:48.939Z,99829.64
2023-11-25T06:15:16.937Z,99827.73
2023-11-25T06:17:46.689Z,99821.75
2023-11-25T06:25:44.210Z,99830.72
2023-11-25T06:28:15.181Z,99836.10
2023-11-25T06:30:41.983Z,99836.61
2023-11-25T06:33:08.657Z,99832.20
2023-11-25T06:35:37.215Z,99825.58
2023-11-25T06:38:05.231Z,99822.52
2023-11-25T06:40:31.957Z,99825.41
2023-11-25T06:42:58.547Z,99827.45
2023-11-25T06:45:27.841Z,99815.23
2023-11-25T06:47:55.516Z,99814.91
2023-11-25T06:50:23.510Z,99813.05
2023-11-25T06:52:50.478Z,99819.35
2023-11-25T06:55:20.278Z,99826.00
2023-11-25T06:57:47.576Z,99826.01
2023-11-25T07:00:14.922Z,99833.50
2023-11-25T07:02:42.145Z,99843.88
2023-11-25T07:05:09.908Z,99843.22
2023-11-25T07:08:44.820Z,99853.86
2023-11-25T07:11:14.365Z,99853.73
2023-11-25T07:13:43.201Z,99855.67
2023-11-25T07:16:12.830Z,99857.44
2023-11-25T07:18:44.017Z,99850.08
2023-11-25T07:21:14.261Z,99848.79
2023-11-25T07:23:41.031Z,99843.29
2023-11-25T07:26:08.088Z,99851.52
2023-11-25T07:28:35.197Z,99841.44
2023-11-25T07:31:01.893Z,99845.25
2023-11-25T07:46:09.108Z,99859.68
2023-11-25T07:48:35.924Z,99864.48
2023-11-25T07:51:03.784Z,99861.86
2023-11-25T07:53:30.629Z,99866.04
2023-11-25T07:55:57.536Z,99856.94
2023-11-25T07:58:24.350Z,99860.84
2023-11-25T08:00:51.281Z,99855.71
2023-11-25T08:03:18.146Z,99860.11
2023-11-25T08:08:33.865Z,99855.98
2023-11-25T08:11:00.478Z,99863.86
2023-11-25T08:13:27.585Z,99862.42
2023-11-25T08:15:54.163Z,99870.15
2023-11-25T08:18:21.115Z,99863.06
2023-11-25T08:20:47.701Z,99867.67
2023-11-25T08:23:14.306Z,99869.02
2023-11-25T08:25:40.907Z,99867.30
2023-11-25T08:28:07.485Z,99866.73
2023-11-25T08:30:34.117Z,99868.52
2023-11-25T08:33:01.233Z,99871.73
2023-11-25T08:44:00.612Z,99855.56
2023-11-25T08:46:27.431Z,99858.55
2023-11-25T08:48:54.025Z,99851.89
2023-11-25T08:51:20.572Z,99855.41
2023-11-25T08:53:48.168Z,99854.88
2023-11-25T08:56:14.638Z,99851.79
2023-11-25T08:58:41.604Z,99854.12
2023-11-25T09:01:09.686Z,99850.03
2023-11-25T09:03:37.296Z,99848.52
2023-11-25T09:08:44.526Z,99852.10
2023-11-25T09:11:11.205Z,99847.06
2023-11-25T09:13:38.881Z,99845.77
2023-11-25T09:16:06.109Z,99852.45
2023-11-25T09:18:32.833Z,99855.15
2023-11-25T09:20:59.321Z,99861.20
2023-11-25T09:23:25.844Z,99868.52
2023-11-25T09:25:52.445Z,99871.23
2023-11-25T09:28:19.165Z,99864.08
2023-11-25T09:30:45.960Z,99864.19
2023-11-25T09:33:12.556Z,99860.80
2023-11-25T09:35:39.064Z,99858.40
2023-11-25T09:38:05.767Z,99857.52
2023-11-25T09:40:32.562Z,99856.98
2023-11-25T09:42:59.146Z,99856.19
2023-11-25T09:45:30.510Z,99853.67
2023-11-25T09:47:57.125Z,99852.69
2023-11-25T09:50:24.050Z,99842.96
2023-11-25T09:52:53.414Z,99836.65
2023-11-25T09:55:23.354Z,99838.14
2023-11-25T09:57:54.115Z,99836.16
2023-11-25T10:00:22.541Z,99831.30
2023-11-25T10:02:54.029Z,99833.69
2023-11-25T10:08:48.067Z,99827.92
2023-11-25T10:24:11.086Z,99817.64
2023-11-25T10:26:38.805Z,99817.64
2023-11-25T10:29:05.403Z,99811.52
2023-11-25T10:31:34.432Z,99812.88
2023-11-25T10:34:01.914Z,99808.56
2023-11-25T10:36:29.757Z,99812.41
2023-11-25T10:39:18.906Z,99806.98
2023-11-25T10:41:50.334Z,99802.23
2023-11-25T10:44:18.037Z,99800.19
2023-11-25T10:55:27.827Z,99779.35
2023-11-25T10:58:02.157Z,99773.59
2023-11-25T11:00:31.307Z,99774.99
2023-11-25T11:03:02.970Z,99773.97
2023-11-25T11:05:46.072Z,99774.17
2023-11-25T11:08:23.901Z,99773.05
2023-11-25T11:11:04.844Z,99771.27
2023-11-25T11:13:42.966Z,99769.21
2023-11-25T11:16:27.827Z,99762.09
2023-11-25T11:18:56.097Z,99749.19
2023-11-25T11:21:29.173Z,99748.73
2023-11-25T11:23:56.084Z,99744.81
2023-11-25T11:26:49.455Z,99744.08
2023-11-25T11:29:33.421Z,99746.55
2023-11-25T11:32:06.120Z,99735.23
2023-11-25T11:34:34.940Z,99733.88
2023-11-25T11:37:02.336Z,99732.52
2023-11-25T11:39:33.182Z,99731.48
2023-11-25T11:42:28.084Z,99727.05
2023-11-25T11:45:18.699Z,99724.36
2023-11-25T11:47:53.950Z,99723.95
2023-11-25T11:50:24.160Z,99712.70
2023-11-25T11:53:03.109Z,99712.08
2023-11-25T11:55:32.652Z,99707.80
2023-11-25T11:58:16.760Z,99713.98
2023-11-25T12:01:02.420Z,99715.96
2023-11-25T12:03:31.416Z,99718.39
2023-11-25T12:08:41.689Z,99712.56
2023-11-25T12:11:08.322Z,99712.58
2023-11-25T12:13:39.898Z,99715.15
2023-11-25T12:16:07.631Z,99713.09
2023-11-25T12:18:35.597Z,99713.70
2023-11-25T12:21:05.622Z,99705.65
2023-11-25T12:23:44.654Z,99708.69
2023-11-25T12:26:23.890Z,99712.36
2023-11-25T12:28:50.855Z,99711.91
2023-11-25T12:31:17.609Z,99713.85
2023-11-25T12:33:44.468Z,99708.65
2023-11-25T12:36:11.005Z,99708.40
2023-11-25T12:38:38.767Z,99710.70
2023-11-25T12:41:12.998Z,99706.08
2023-11-25T12:44:12.599Z,99700.27
2023-11-25T12:46:41.379Z,99699.08
2023-11-25T12:49:25.328Z,99704.04
2023-11-25T12:51:53.800Z,99701.27
2023-11-25T12:54:21.261Z,99698.64
2023-11-25T12:56:58.193Z,99692.80
2023-11-25T12:59:30.153Z,99685.59
2023-11-25T13:02:11.362Z,99692.68
2023-11-25T13:04:49.322Z,99691.63
2023-11-25T13:07:31.073Z,99685.02
2023-11-25T13:09:57.789Z,99680.95
2023-11-25T13:12:25.362Z,99673.83
2023-11-25T13:14:52.018Z,99671.48
2023-11-25T13:17:18.740Z,99670.32
2023-11-25T13:19:45.549Z,99668.45
2023-11-25T13:22:12.249Z,99664.20
2023-11-25T13:24:38.784Z,99662.52
2023-11-25T13:27:06.240Z,99662.73
2023-11-25T13:29:33.547Z,99656.60
2023-11-25T13:32:00.200Z,99655.75
2023-11-25T13:34:27.054Z,99654.71
2023-11-25T13:36:53.642Z,99651.80
2023-11-25T13:39:21.191Z,99647.73
2023-11-25T13:55:44.584Z,99647.60
2023-11-25T13:58:12.856Z,99641.11
2023-11-25T14:08:43.720Z,99635.40
2023-11-25T14:11:10.530Z,99632.20
2023-11-25T14:13:37.268Z,99632.58
2023-11-25T14:16:04.066Z,99637.02
2023-11-25T14:18:30.868Z,99630.56
2023-11-25T14:20:58.046Z,99626.83
2023-11-25T14:23:24.707Z,99636.39
2023-11-25T14:25:51.294Z,99625.12
2023-11-25T14:33:52.527Z,99624.14
2023-11-25T14:36:19.185Z,99625.16
2023-11-25T14:38:47.566Z,99627.05
2023-11-25T14:41:21.164Z,99627.58
2023-11-25T14:43:47.971Z,99627.58
2023-11-25T14:46:14.706Z,99633.88
2023-11-25T14:48:41.315Z,99638.82
2023-11-25T14:51:08.092Z,99632.48
2023-11-25T14:53:34.906Z,99638.97
2023-11-25T14:56:02.315Z,99644.76
2023-11-25T14:58:29.347Z,99623.62
2023-11-25T15:00:56.366Z,99623.09
2023-11-25T15:03:23.431Z,99625.98
2023-11-25T15:05:50.168Z,99624.29
2023-11-25T15:08:16.761Z,99630.42
2023-11-25T15:10:45.121Z,99626.16
2023-11-25T15:13:12.017Z,99623.27
2023-11-25T15:15:38.821Z,99622.58
2023-11-25T15:18:08.599Z,99624.97
2023-11-25T15:20:35.324Z,99625.48
2023-11-25T15:23:04.979Z,99626.48
2023-11-25T15:25:36.679Z,99620.52
2023-11-25T15:28:07.006Z,99621.02
2023-11-25T15:30:34.919Z,99624.40
2023-11-25T15:33:01.458Z,99625.93
2023-11-25T15:35:29.632Z,99629.14
2023-11-25T15:37:57.034Z,99622.48
2023-11-25T15:40:23.947Z,99621.09
2023-11-25T15:42:50.549Z,99615.95
2023-11-25T15:45:17.978Z,99616.61
2023-11-25T15:47:45.007Z,99619.66
2023-11-25T15:50:11.795Z,99616.73
2023-11-25T15:52:38.392Z,99622.48
2023-11-25T15:55:05.166Z,99624.87
2023-11-25T15:57:31.807Z,99632.52
2023-11-25T15:59:58.936Z,99638.66
2023-11-25T16:02:26.878Z,99639.33
2023-11-25T16:04:53.719Z,99637.09
2023-11-25T16:08:42.553Z,99648.17
2023-11-25T16:11:09.155Z,99650.71
2023-11-25T16:13:35.781Z,99650.02
2023-11-25T16:16:02.453Z,99649.30
2023-11-25T16:24:01.107Z,99653.70
2023-11-25T16:39:29.038Z,99652.93
2023-11-25T16:41:55.852Z,99659.17
2023-11-25T16:44:23.058Z,99650.33
2023-11-25T16:46:49.921Z,99646.41
2023-11-25T16:49:18.828Z,99656.27
2023-11-25T16:51:45.457Z,99654.55
2023-11-25T16:54:12.176Z,99651.48
2023-11-25T16:56:38.693Z,99643.79
2023-11-25T16:59:08.020Z,99638.84
2023-11-25T17:01:34.741Z,99645.98
2023-11-25T17:04:01.482Z,99654.96
2023-11-25T17:06:29.138Z,99658.88
2023-11-25T17:08:56.355Z,99658.04
2023-11-25T17:11:24.266Z,99660.92
2023-11-25T17:13:52.274Z,99667.05
2023-11-25T17:16:21.567Z,99670.80
2023-11-25T17:18:48.361Z,99682.74
2023-11-25T17:21:14.973Z,99682.43
2023-11-25T17:23:41.679Z,99688.23
2023-11-25T17:26:08.246Z,99687.42
2023-11-25T17:28:35.339Z,99692.56
2023-11-25T17:31:03.166Z,99690.20
2023-11-25T17:33:29.720Z,99685.80
2023-11-25T17:35:56.322Z,99689.23
2023-11-25T17:38:24.748Z,99694.34
2023-11-25T17:40:52.396Z,99694.55
2023-11-25T17:43:21.894Z,99690.51
2023-11-25T17:45:48.468Z,99692.06
2023-11-25T17:48:15.190Z,99692.27
2023-11-25T17:50:42.941Z,99695.72
2023-11-25T17:53:14.102Z,99701.39
2023-11-25T17:55:41.890Z,99706.20
2023-11-25T17:58:08.605Z,99706.21
2023-11-25T18:00:35.216Z,99712.73
2023-11-25T18:03:01.953Z,99713.95
2023-11-25T18:08:34.813Z,99722.20
2023-11-25T18:11:01.412Z,99722.84
2023-11-25T18:23:07.586Z,99737.06
2023-11-25T18:25:34.259Z,99742.63
2023-11-25T18:28:02.786Z,99744.30
2023-11-25T18:30:29.652Z,99747.19
2023-11-25T18:32:56.586Z,99755.84
2023-11-25T18:35:31.545Z,99758.88
2023-11-25T18:37:58.485Z,99766.35
2023-11-25T18:40:26.072Z,99767.35
2023-11-25T18:42:52.618Z,99765.45
2023-11-25T18:45:19.226Z,99766.98
2023-11-25T19:00:35.240Z,99773.43
2023-11-25T19:03:03.235Z,99768.13
2023-11-25T19:05:30.416Z,99768.34
2023-11-25T19:07:57.071Z,99772.27
2023-11-25T19:10:23.645Z,99768.69
2023-11-25T19:12:50.223Z,99774.13
2023-11-25T19:15:16.729Z,99776.85
2023-11-25T19:17:43.558Z,99775.63
2023-11-25T19:20:12.373Z,99775.77
2023-11-25T19:22:39.464Z,99780.85
2023-11-25T19:25:07.216Z,99793.94
2023-11-25T19:27:34.180Z,99807.20
2023-11-25T19:30:00.773Z,99820.64
2023-11-25T19:32:27.356Z,99827.61
2023-11-25T19:47:29.297Z,99858.93
2023-11-25T19:49:56.066Z,99860.77
2023-11-25T19:52:22.692Z,99869.65
2023-11-25T19:54:49.195Z,99874.77
2023-11-25T19:57:15.936Z,99872.56
2023-11-25T19:59:42.575Z,99874.30
2023-11-25T20:02:09.254Z,99882.14
2023-11-25T20:04:37.006Z,99889.14
2023-11-25T20:08:44.456Z,99893.27
2023-11-25T20:11:11.131Z,99901.26
2023-11-25T20:13:37.811Z,99903.13
2023-11-25T20:16:05.588Z,99913.15
2023-11-25T20:18:32.160Z,99919.08
2023-11-25T20:20:59.079Z,99922.11
2023-11-25T20:23:28.013Z,99921.52
2023-11-25T20:25:54.700Z,99925.19
2023-11-25T20:28:21.302Z,99928.01
2023-11-25T20:30:47.874Z,99932.35
2023-11-25T20:33:14.600Z,99934.65
2023-11-25T20:35:41.367Z,99935.40
2023-11-25T20:44:47.133Z,99954.20
2023-11-25T20:47:13.805Z,99955.30
2023-11-25T20:49:40.490Z,99959.50
2023-11-25T20:52:07.285Z,99958.72
2023-11-25T20:54:35.729Z,99963.27
2023-11-25T20:57:05.690Z,99966.10
2023-11-25T20:59:32.327Z,99967.37
2023-11-25T21:01:59.068Z,99970.34
2023-11-25T21:09:14.246Z,99979.75
2023-11-25T21:11:40.751Z,99985.77
2023-11-25T21:14:08.244Z,99988.44
2023-11-25T21:16:37.518Z,99985.67
2023-11-25T21:19:05.564Z,99986.65
2023-11-25T21:21:34.089Z,99987.30
2023-11-25T21:24:02.424Z,99989.27
2023-11-25T21:26:29.438Z,99990.77
2023-11-25T21:28:57.961Z,99995.95
2023-11-25T21:31:27.053Z,100002.86
2023-11-25T21:33:58.278Z,100000.61
2023-11-25T21:36:25.961Z,100004.31
2023-11-25T21:38:53.934Z,100006.30
2023-11-25T21:55:15.824Z,100021.90
2023-11-25T21:57:46.671Z,100027.45
2023-11-25T22:00:18.534Z,100028.63
2023-11-25T22:02:48.191Z,100030.64
2023-11-25T22:05:16.267Z,100034.51
2023-11-25T22:07:46.346Z,100041.45
2023-11-25T22:10:25.075Z,100042.09
2023-11-25T22:12:57.307Z,100038.48
2023-11-25T22:15:24.907Z,100044.70
2023-11-25T22:17:52.310Z,100045.89
2023-11-25T22:20:19.751Z,100045.89
2023-11-25T22:22:46.607Z,100047.76
2023-11-25T22:25:15.204Z,100039.09
2023-11-25T22:27:42.260Z,100039.94
2023-11-25T22:30:10.869Z,100037.55
2023-11-25T22:32:37.555Z,100042.31
2023-11-25T22:35:04.835Z,100040.91
2023-11-25T22:37:31.478Z,100034.61
2023-11-25T22:39:58.582Z,100039.91
2023-11-25T22:42:26.564Z,100042.27
2023-11-25T22:44:53.176Z,100044.80
2023-11-25T22:47:20.785Z,100048.87
2023-11-25T22:49:47.580Z,100049.38
2023-11-25T22:52:14.436Z,100049.20
2023-11-25T22:54:41.621Z,100050.90
2023-11-25T22:57:09.505Z,100059.04
2023-11-25T22:59:38.807Z,100059.54
2023-11-25T23:02:07.215Z,100067.16
2023-11-25T23:04:33.978Z,100070.41
2023-11-25T23:08:45.939Z,100081.17
2023-11-25T23:11:12.917Z,100088.91
2023-11-25T23:13:39.817Z,100092.43
2023-11-25T23:16:06.558Z,100094.91
2023-11-25T23:18:33.177Z,100097.72
2023-11-25T23:20:59.870Z,100100.73
2023-11-25T23:23:29.551Z,100102.19
2023-11-25T23:26:02.243Z,100103.65
2023-11-25T23:28:28.911Z,100102.10
2023-11-25T23:30:55.456Z,100103.91
2023-11-25T23:33:22.033Z,100103.73
2023-11-25T23:35:48.625Z,100099.86
2023-11-25T23:38:15.202Z,100101.70
2023-11-25T23:40:41.735Z,100106.30
2023-11-25T23:43:09.115Z,100104.41
2023-11-25T23:45:36.467Z,100104.55
2023-11-25T23:48:03.126Z,100103.30
2023-11-25T23:50:29.844Z,100103.80
2023-11-25T23:52:57.492Z,100104.09
2023-11-25T23:55:24.326Z,100109.30
2023-11-25T23:57:50.924Z,100105.15
